KLHM/LHM METAR and TAF weather

Enter ICAO airport designator
Station Type Date Time Source
KLHM METAR 2021/07/30 07:55 UTC NOAA

KLHM 300755Z AUTO 17007KT 10SM CLR 27/13 A2980 RMK AO1


Station Type Date Time Source
KLHM Decoded METAR 2021/07/30 07:55 UTC NOAA

Station name not available
Jul 30, 2021 - 03:55 AM EDT / 2021.07.30 0755 UTC
Wind: from the S (170 degrees) at 8 MPH (7 KT):0
Visibility: 10 mile(s):0
Sky conditions: clear
Temperature: 80 F (27 C)
Dew Point: 55 F (13 C)
Relative Humidity: 41%
Pressure (altimeter): 29.8 in. Hg (1009 hPa)
ob: KLHM 300755Z AUTO 17007KT 10SM CLR 27/13 A2980 RMK AO1
cycle: 8

Station Type Date Time Source
KLHM TAF UTC NOAA

Error!

Example: see airport list